PADU

Details ICAO PADU (DUT)
Name UNALASKA
Region USA (Alaska)
Timezone America/Adak (UTC-9.0)
Plans Departing 30
Arriving 34
Stats Elevation 22 ft / 7 m (AMSL)
Location 53.899070° -166.545064°
Runways 1
Magnetic Variation 9.241° E
Sunrise 2017-05-29 14:45:22 UTC / 2017-05-29 05:45:22 Local
Sunset 2017-05-30 07:24:53 UTC / 2017-05-29 22:24:53 Local
Advertisement - Login to hide

Runways

ID Width Length Bearing (true) Bearing (mag) Surface Threshold Offset Overrun Length
12 100 ft / 30 m 3,895 ft / 1,187 m 135.64° 126.40° Asphalt 100 ft / 30 m 0 ft / 0 m
30 100 ft / 30 m 3,895 ft / 1,187 m 315.65° 306.41° Asphalt 101 ft / 31 m 0 ft / 0 m

Map

Weather


0- 5 10 15 20 25 30 35+ Temperature / ° C

Clouds and Precipitation
Forecast for 2017-05-29 18:00 UTC. Updated 2 hours ago

Ground ~20,000 ft ~40,000 ft Winds

METAR

PADU 291456Z 14010KT 10SM BKN024 OVC033 06/02 A2978 RMK AO2 SLP084 MH T00610017 56002

TAF

TAF AMD PADU 291422Z 2914/3012 13007KT P6SM SCT025 OVC035 TEMPO 2914/2916 BKN025 FM291800 11009G18KT P6SM -SHRA BKN025 OVC040 FM300600 12008KT P6SM -SHRA BKN020 OVC035

Frequencies

Recorded 125.80 MHz AWOS 3
Unicom 122.60 MHz CTAF
Warning: Do not use this data for real-world aviation or navigation. No guarantee of current accuracy is given.